La rose des vents
Donnes mto: Semaine 20/08/07 - 26/08/07 (S 34)
Date Horaire Temp. E. Hum. E. P.atmo. Pluie Vent 1mn Direction Ensoleilleme Ev.Tr. Solaire P. de rose Temp au vent Rafales
20/08/2007 00:00 18,7 C 86 % 1006,3 hPa 0,0 l/m 1,1 km/h (1 Bft) N-NE 0,00 h 0,025 mm 0 W/m 16,4 C 18,7 C 2,6 km/h (1 Bft)
20/08/2007 01:00 18,8 C 86 % 1006,1 hPa 0,0 l/m 0,7 km/h (0 Bft) N 0,00 h 0,025 mm 0 W/m 16,4 C 18,8 C 1,9 km/h (1 Bft)
20/08/2007 02:00 18,3 C 87 % 1005,7 hPa 0,0 l/m 2,3 km/h (1 Bft) N 0,00 h 0,025 mm 0 W/m 16,1 C 18,3 C 4,4 km/h (1 Bft)
20/08/2007 03:00 18,1 C 88 % 1005,2 hPa 0,0 l/m 6,4 km/h (2 Bft) O 0,00 h 0,025 mm 0 W/m 16,0 C 18,1 C 8,2 km/h (2 Bft)
20/08/2007 04:00 17,7 C 88 % 1004,9 hPa 0,0 l/m 5,7 km/h (1 Bft) O-NO 0,00 h 0,025 mm 0 W/m 15,7 C 17,7 C 7,9 km/h (2 Bft)
20/08/2007 05:00 17,6 C 87 % 1004,7 hPa 0,0 l/m 2,6 km/h (1 Bft) O-NO 0,00 h 0,025 mm 0 W/m 15,4 C 17,6 C 4,1 km/h (1 Bft)
20/08/2007 06:00 17,3 C 88 % 1004,5 hPa 0,0 l/m 2,9 km/h (1 Bft) O-NO 0,03 h 0,025 mm 10 W/m 15,2 C 17,3 C 4,6 km/h (1 Bft)
20/08/2007 07:00 18,2 C 86 % 1004,3 hPa 0,0 l/m 1,5 km/h (1 Bft) O-NO 0,63 h 0,025 mm 81 W/m 15,8 C 18,2 C 3,0 km/h (1 Bft)
20/08/2007 08:00 20,3 C 78 % 1004,2 hPa 0,0 l/m 1,7 km/h (1 Bft) O 0,38 h 0,051 mm 165 W/m 16,3 C 20,3 C 3,6 km/h (1 Bft)
20/08/2007 09:00 21,7 C 74 % 1003,7 hPa 0,0 l/m 1,1 km/h (0 Bft) N-NE 0,25 h 0,102 mm 231 W/m 16,9 C 21,7 C 2,7 km/h (1 Bft)
20/08/2007 10:00 22,6 C 70 % 1003,6 hPa 0,0 l/m 4,2 km/h (1 Bft) S 0,53 h 0,152 mm 382 W/m 16,9 C 22,6 C 6,8 km/h (2 Bft)
20/08/2007 11:00 23,3 C 67 % 1003,1 hPa 0,0 l/m 5,5 km/h (1 Bft) S 0,25 h 0,254 mm 362 W/m 16,9 C 23,3 C 9,6 km/h (2 Bft)
20/08/2007 12:00 25,4 C 60 % 1002,6 hPa 0,0 l/m 9,4 km/h (2 Bft) E 0,65 h 0,279 mm 625 W/m 16,9 C 25,4 C 14,9 km/h (3 Bft)
20/08/2007 13:00 25,9 C 58 % 1001,7 hPa 0,0 l/m 11,3 km/h (2 Bft) E 0,95 h 0,483 mm 774 W/m 16,9 C 25,9 C 17,4 km/h (3 Bft)
20/08/2007 14:00 26,1 C 48 % 1000,8 hPa 0,0 l/m 10,9 km/h (2 Bft) E 1,00 h 0,584 mm 787 W/m 14,0 C 26,1 C 16,8 km/h (3 Bft)
20/08/2007 15:00 27,7 C 40 % 999,8 hPa 0,0 l/m 8,2 km/h (2 Bft) NE 1,00 h 0,584 mm 724 W/m 12,9 C 27,7 C 12,4 km/h (3 Bft)
20/08/2007 16:00 28,3 C 33 % 998,6 hPa 0,0 l/m 17,1 km/h (3 Bft) SO 0,90 h 0,559 mm 564 W/m 10,4 C 28,3 C 25,0 km/h (4 Bft)
20/08/2007 17:00 27,7 C 30 % 997,9 hPa 0,0 l/m 32,7 km/h (5 Bft) SO 0,97 h 0,559 mm 441 W/m 8,4 C 27,7 C 43,6 km/h (6 Bft)
20/08/2007 18:00 25,3 C 32 % 998,4 hPa 0,0 l/m 28,9 km/h (5 Bft) O-SO 0,07 h 0,660 mm 146 W/m 7,4 C 25,3 C 38,1 km/h (5 Bft)
20/08/2007 19:00 24,1 C 43 % 999,5 hPa 0,0 l/m 15,4 km/h (3 Bft) E-NE 0,13 h 0,406 mm 67 W/m 10,4 C 24,1 C 21,9 km/h (4 Bft)
20/08/2007 20:00 21,5 C 62 % 1000,5 hPa 0,0 l/m 10,8 km/h (2 Bft) E-NE 0,22 h 0,178 mm 20 W/m 13,9 C 21,5 C 15,8 km/h (3 Bft)
20/08/2007 21:00 19,9 C 69 % 1001,3 hPa 0,0 l/m 4,1 km/h (1 Bft) E-SE 0,00 h 0,076 mm 0 W/m 13,9 C 19,9 C 7,0 km/h (2 Bft)
20/08/2007 22:00 19,0 C 73 % 1002,1 hPa 0,0 l/m 5,6 km/h (1 Bft) O-SO 0,00 h 0,051 mm 0 W/m 14,0 C 19,0 C 7,2 km/h (2 Bft)
20/08/2007 23:00 18,2 C 78 % 1002,0 hPa 0,0 l/m 9,8 km/h (2 Bft) O-SO 0,00 h 0,051 mm 0 W/m 14,2 C 18,2 C 14,1 km/h (3 Bft)
21/08/2007 00:00 18,2 C 79 % 1002,3 hPa 0,0 l/m 11,0 km/h (2 Bft) O-SO 0,00 h 0,051 mm 0 W/m 14,4 C 18,2 C 15,8 km/h (3 Bft)
21/08/2007 01:00 18,4 C 72 % 1002,5 hPa 0,0 l/m 7,2 km/h (2 Bft) O-SO 0,00 h 0,051 mm 0 W/m 13,4 C 18,4 C 10,7 km/h (2 Bft)
21/08/2007 02:00 17,9 C 60 % 1002,5 hPa 0,0 l/m 9,7 km/h (2 Bft) O-SO 0,00 h 0,051 mm 0 W/m 10,0 C 17,9 C 13,8 km/h (3 Bft)
21/08/2007 03:00 18,4 C 51 % 1002,2 hPa 0,0 l/m 15,3 km/h (3 Bft) O 0,00 h 0,076 mm 0 W/m 8,1 C 18,4 C 21,3 km/h (4 Bft)
21/08/2007 04:00 18,3 C 54 % 1001,8 hPa 0,0 l/m 17,0 km/h (3 Bft) O-SO 0,00 h 0,127 mm 0 W/m 8,8 C 18,3 C 23,5 km/h (4 Bft)
21/08/2007 05:00 16,4 C 73 % 1002,5 hPa 0,2 l/m 19,8 km/h (3 Bft) SO 0,00 h 0,127 mm 0 W/m 11,5 C 16,4 C 24,7 km/h (4 Bft)
21/08/2007 06:00 15,3 C 83 % 1003,3 hPa 0,2 l/m 16,5 km/h (3 Bft) O-SO 0,00 h 0,076 mm 0 W/m 12,5 C 15,3 C 22,6 km/h (4 Bft)
21/08/2007 07:00 14,9 C 89 % 1003,5 hPa 0,6 l/m 9,4 km/h (2 Bft) O-SO 0,00 h 0,051 mm 19 W/m 13,1 C 14,9 C 13,2 km/h (3 Bft)
21/08/2007 08:00 14,8 C 92 % 1003,2 hPa 0,2 l/m 5,0 km/h (1 Bft) E 0,00 h 0,025 mm 35 W/m 13,5 C 14,8 C 7,8 km/h (2 Bft)
21/08/2007 09:00 15,3 C 93 % 1004,0 hPa 0,0 l/m 3,6 km/h (1 Bft) O-NO 0,00 h 0,025 mm 88 W/m 14,2 C 15,3 C 5,6 km/h (1 Bft)
21/08/2007 10:00 17,1 C 85 % 1004,3 hPa 0,0 l/m 4,8 km/h (1 Bft) NO 0,50 h 0,051 mm 430 W/m 14,5 C 17,1 C 8,0 km/h (2 Bft)
21/08/2007 11:00 19,4 C 67 % 1004,5 hPa 0,0 l/m 4,0 km/h (1 Bft) O-SO 0,10 h 0,229 mm 348 W/m 13,2 C 19,4 C 6,4 km/h (2 Bft)
21/08/2007 12:00 20,7 C 63 % 1004,7 hPa 0,0 l/m 6,4 km/h (2 Bft) S-SE 0,53 h 0,279 mm 573 W/m 13,4 C 20,7 C 10,3 km/h (2 Bft)
21/08/2007 13:00 22,1 C 59 % 1004,6 hPa 0,0 l/m 10,6 km/h (2 Bft) E 0,32 h 0,381 mm 525 W/m 13,7 C 22,1 C 16,6 km/h (3 Bft)
21/08/2007 14:00 22,8 C 58 % 1004,5 hPa 0,0 l/m 9,8 km/h (2 Bft) E 0,73 h 0,432 mm 672 W/m 14,0 C 22,8 C 15,7 km/h (3 Bft)
21/08/2007 15:00 22,0 C 60 % 1004,8 hPa 0,0 l/m 7,2 km/h (2 Bft) E 0,40 h 0,457 mm 429 W/m 13,8 C 22,0 C 12,5 km/h (3 Bft)
21/08/2007 16:00 20,7 C 65 % 1005,3 hPa 0,0 l/m 4,9 km/h (1 Bft) E 0,00 h 0,305 mm 172 W/m 13,9 C 20,7 C 7,7 km/h (2 Bft)
21/08/2007 17:00 20,7 C 65 % 1005,3 hPa 0,0 l/m 8,8 km/h (2 Bft) E-NE 0,28 h 0,127 mm 235 W/m 13,8 C 20,7 C 12,7 km/h (3 Bft)
21/08/2007 18:00 21,1 C 67 % 1005,4 hPa 0,0 l/m 8,1 km/h (2 Bft) E 0,78 h 0,203 mm 281 W/m 14,6 C 21,1 C 12,6 km/h (3 Bft)
21/08/2007 19:00 19,1 C 76 % 1005,7 hPa 0,0 l/m 5,4 km/h (1 Bft) S-SE 0,00 h 0,203 mm 17 W/m 14,8 C 19,1 C 8,8 km/h (2 Bft)
21/08/2007 20:00 18,3 C 77 % 1006,2 hPa 0,0 l/m 5,2 km/h (1 Bft) S 0,00 h 0,025 mm 8 W/m 14,1 C 18,3 C 8,1 km/h (2 Bft)
21/08/2007 21:00 17,6 C 80 % 1006,9 hPa 0,0 l/m 0,5 km/h (0 Bft) S-SO 0,00 h 0,025 mm 0 W/m 14,2 C 17,6 C 1,6 km/h (1 Bft)
21/08/2007 22:00 16,8 C 83 % 1007,4 hPa 0,0 l/m 1,2 km/h (1 Bft) SO 0,00 h 0,025 mm 0 W/m 14,0 C 16,8 C 2,9 km/h (1 Bft)
21/08/2007 23:00 16,0 C 87 % 1007,6 hPa 0,0 l/m 3,3 km/h (1 Bft) NO 0,00 h 0,025 mm 0 W/m 13,8 C 16,0 C 5,9 km/h (2 Bft)
22/08/2007 00:00 15,4 C 88 % 1007,5 hPa 0,0 l/m 3,7 km/h (1 Bft) NO 0,00 h 0,025 mm 0 W/m 13,4 C 15,4 C 6,1 km/h (2 Bft)
22/08/2007 01:00 14,9 C 88 % 1007,5 hPa 0,0 l/m 3,0 km/h (1 Bft) NO 0,00 h 0,025 mm 0 W/m 12,8 C 14,9 C 5,3 km/h (1 Bft)
22/08/2007 02:00 14,5 C 86 % 1007,6 hPa 0,0 l/m 3,4 km/h (1 Bft) O-NO 0,00 h 0,025 mm 0 W/m 12,1 C 14,5 C 5,8 km/h (2 Bft)
22/08/2007 03:00 14,2 C 84 % 1007,8 hPa 0,0 l/m 2,8 km/h (1 Bft) NO 0,00 h 0,025 mm 0 W/m 11,4 C 14,2 C 4,6 km/h (1 Bft)
22/08/2007 04:00 13,5 C 82 % 1008,0 hPa 0,0 l/m 3,9 km/h (1 Bft) NO 0,00 h 0,025 mm 0 W/m 10,6 C 13,5 C 6,2 km/h (2 Bft)
22/08/2007 05:00 14,0 C 79 % 1008,1 hPa 0,0 l/m 5,6 km/h (1 Bft) O-NO 0,00 h 0,025 mm 0 W/m 10,5 C 14,0 C 8,8 km/h (2 Bft)
22/08/2007 06:00 14,0 C 78 % 1008,2 hPa 0,0 l/m 4,4 km/h (1 Bft) NO 0,02 h 0,025 mm 8 W/m 10,3 C 14,0 C 6,9 km/h (2 Bft)
22/08/2007 07:00 14,7 C 76 % 1008,3 hPa 0,0 l/m 2,5 km/h (1 Bft) NO 0,08 h 0,025 mm 51 W/m 10,6 C 14,7 C 4,0 km/h (1 Bft)
22/08/2007 08:00 15,9 C 73 % 1009,1 hPa 0,0 l/m 2,1 km/h (1 Bft) NO 0,12 h 0,051 mm 111 W/m 11,0 C 15,9 C 3,8 km/h (1 Bft)
22/08/2007 09:00 18,3 C 65 % 1009,5 hPa 0,0 l/m 1,1 km/h (1 Bft) N 0,57 h 0,076 mm 280 W/m 11,5 C 18,3 C 2,9 km/h (1 Bft)
22/08/2007 10:00 20,0 C 67 % 1009,9 hPa 0,0 l/m 4,3 km/h (1 Bft) E-NE 0,13 h 0,178 mm 290 W/m 13,8 C 20,0 C 6,7 km/h (2 Bft)
22/08/2007 11:00 20,8 C 62 % 1009,2 hPa 0,0 l/m 4,6 km/h (1 Bft) NE 0,00 h 0,203 mm 305 W/m 13,2 C 20,8 C 7,3 km/h (2 Bft)
22/08/2007 12:00 20,4 C 65 % 1009,9 hPa 0,0 l/m 3,8 km/h (1 Bft) E-SE 0,00 h 0,203 mm 195 W/m 13,7 C 20,4 C 7,0 km/h (2 Bft)
22/08/2007 13:00 20,6 C 69 % 1010,2 hPa 0,0 l/m 5,5 km/h (1 Bft) E 0,00 h 0,152 mm 218 W/m 14,6 C 20,6 C 8,8 km/h (2 Bft)
22/08/2007 14:00 20,8 C 71 % 1010,4 hPa 0,0 l/m 4,2 km/h (1 Bft) E 0,00 h 0,152 mm 210 W/m 15,3 C 20,8 C 7,2 km/h (2 Bft)
22/08/2007 15:00 20,4 C 74 % 1010,5 hPa 0,0 l/m 4,2 km/h (1 Bft) E 0,00 h 0,152 mm 162 W/m 15,6 C 20,4 C 7,0 km/h (2 Bft)
22/08/2007 16:00 19,8 C 77 % 1010,8 hPa 0,0 l/m 1,7 km/h (1 Bft) S-SE 0,00 h 0,127 mm 77 W/m 15,6 C 19,8 C 3,6 km/h (1 Bft)
22/08/2007 17:00 19,5 C 79 % 1010,9 hPa 0,0 l/m 2,7 km/h (1 Bft) E-SE 0,00 h 0,051 mm 68 W/m 15,8 C 19,5 C 4,9 km/h (1 Bft)
22/08/2007 18:00 19,4 C 79 % 1010,7 hPa 0,0 l/m 0,7 km/h (0 Bft) SE 0,00 h 0,051 mm 69 W/m 15,7 C 19,4 C 1,8 km/h (1 Bft)
22/08/2007 19:00 19,4 C 79 % 1010,7 hPa 0,0 l/m 0,0 km/h (0 Bft) SE 0,00 h 0,051 mm 44 W/m 15,7 C 19,4 C 0,4 km/h (0 Bft)
22/08/2007 20:00 18,5 C 82 % 1010,7 hPa 0,0 l/m 0,0 km/h (0 Bft) N 0,00 h 0,025 mm 10 W/m 15,5 C 18,5 C 0,1 km/h (0 Bft)
22/08/2007 21:00 17,5 C 86 % 1011,1 hPa 0,0 l/m 0,2 km/h (0 Bft) SE 0,00 h 0,000 mm 0 W/m 15,0 C 17,5 C 0,3 km/h (0 Bft)
22/08/2007 22:00 17,0 C 88 % 1011,3 hPa 0,0 l/m 2,9 km/h (1 Bft) SE 0,00 h 0,025 mm 0 W/m 15,0 C 17,0 C 4,3 km/h (1 Bft)
22/08/2007 23:00 16,4 C 89 % 1011,6 hPa 0,0 l/m 5,3 km/h (1 Bft) O-NO 0,00 h 0,025 mm 0 W/m 14,6 C 16,4 C 7,2 km/h (2 Bft)
23/08/2007 00:00 15,8 C 83 % 1011,9 hPa 0,0 l/m 9,7 km/h (2 Bft) O-NO 0,00 h 0,025 mm 0 W/m 13,0 C 15,8 C 13,0 km/h (3 Bft)
23/08/2007 01:00 15,5 C 78 % 1011,9 hPa 0,0 l/m 8,3 km/h (2 Bft) O-NO 0,00 h 0,025 mm 0 W/m 11,7 C 15,5 C 11,4 km/h (2 Bft)
23/08/2007 02:00 14,8 C 78 % 1011,9 hPa 0,0 l/m 5,6 km/h (1 Bft) O-NO 0,00 h 0,051 mm 0 W/m 11,0 C 14,8 C 8,4 km/h (2 Bft)
23/08/2007 03:00 14,6 C 80 % 1011,9 hPa 0,0 l/m 4,1 km/h (1 Bft) NO 0,00 h 0,025 mm 0 W/m 11,2 C 14,6 C 6,3 km/h (2 Bft)
23/08/2007 04:00 14,2 C 77 % 1011,5 hPa 0,0 l/m 5,1 km/h (1 Bft) O-NO 0,00 h 0,025 mm 0 W/m 10,3 C 14,2 C 7,9 km/h (2 Bft)
23/08/2007 05:00 14,3 C 71 % 1011,9 hPa 0,0 l/m 7,9 km/h (2 Bft) NO 0,00 h 0,025 mm 0 W/m 9,0 C 14,3 C 11,6 km/h (2 Bft)
23/08/2007 06:00 13,9 C 71 % 1012,4 hPa 0,0 l/m 2,3 km/h (1 Bft) NO 0,00 h 0,051 mm 6 W/m 8,6 C 13,9 C 4,0 km/h (1 Bft)
23/08/2007 07:00 14,2 C 73 % 1012,6 hPa 0,0 l/m 6,0 km/h (2 Bft) O-NO 0,18 h 0,025 mm 42 W/m 9,3 C 14,2 C 9,2 km/h (2 Bft)
23/08/2007 08:00 16,6 C 64 % 1012,7 hPa 0,0 l/m 0,3 km/h (0 Bft) O-NO 0,40 h 0,051 mm 147 W/m 9,7 C 16,6 C 1,5 km/h (1 Bft)
23/08/2007 09:00 20,3 C 55 % 1013,1 hPa 0,0 l/m 2,4 km/h (1 Bft) E 0,90 h 0,076 mm 371 W/m 10,8 C 20,3 C 4,4 km/h (1 Bft)
23/08/2007 10:00 20,8 C 56 % 1014,1 hPa 0,0 l/m 3,7 km/h (1 Bft) S 0,23 h 0,229 mm 303 W/m 11,6 C 20,8 C 6,1 km/h (2 Bft)
23/08/2007 11:00 21,7 C 56 % 1014,4 hPa 0,0 l/m 4,1 km/h (1 Bft) S 0,57 h 0,203 mm 491 W/m 12,5 C 21,7 C 7,1 km/h (2 Bft)
23/08/2007 12:00 23,6 C 49 % 1014,3 hPa 0,0 l/m 8,3 km/h (2 Bft) E 0,90 h 0,330 mm 747 W/m 12,1 C 23,6 C 13,1 km/h (3 Bft)
23/08/2007 13:00 24,4 C 47 % 1014,2 hPa 0,0 l/m 12,7 km/h (3 Bft) E 1,00 h 0,533 mm 806 W/m 12,2 C 24,4 C 18,8 km/h (3 Bft)
23/08/2007 14:00 24,1 C 48 % 1014,7 hPa 0,0 l/m 9,9 km/h (2 Bft) E 1,00 h 0,610 mm 779 W/m 12,4 C 24,1 C 16,0 km/h (3 Bft)
23/08/2007 15:00 24,3 C 45 % 1014,9 hPa 0,0 l/m 9,6 km/h (2 Bft) E 0,98 h 0,559 mm 687 W/m 11,6 C 24,3 C 15,1 km/h (3 Bft)
23/08/2007 16:00 24,3 C 50 % 1015,1 hPa 0,0 l/m 10,9 km/h (2 Bft) E 0,93 h 0,508 mm 566 W/m 13,3 C 24,3 C 16,9 km/h (3 Bft)
23/08/2007 17:00 23,3 C 51 % 1015,3 hPa 0,0 l/m 6,1 km/h (2 Bft) S-SE 0,92 h 0,432 mm 410 W/m 12,7 C 23,3 C 10,3 km/h (2 Bft)
23/08/2007 18:00 22,7 C 50 % 1015,3 hPa 0,0 l/m 4,9 km/h (1 Bft) S-SE 0,93 h 0,305 mm 241 W/m 11,8 C 22,7 C 8,0 km/h (2 Bft)
23/08/2007 19:00 21,3 C 65 % 1015,7 hPa 0,0 l/m 4,1 km/h (1 Bft) S-SE 0,58 h 0,178 mm 85 W/m 14,3 C 21,3 C 7,0 km/h (2 Bft)
23/08/2007 20:00 19,2 C 76 % 1016,1 hPa 0,0 l/m 0,5 km/h (0 Bft) S-SE 0,00 h 0,076 mm 9 W/m 14,9 C 19,2 C 1,3 km/h (1 Bft)
23/08/2007 21:00 18,0 C 81 % 1016,7 hPa 0,0 l/m 0,3 km/h (0 Bft) SE 0,00 h 0,000 mm 0 W/m 14,7 C 18,0 C 1,6 km/h (1 Bft)
23/08/2007 22:00 17,2 C 83 % 1017,3 hPa 0,0 l/m 1,5 km/h (1 Bft) N-NO 0,00 h 0,025 mm 0 W/m 14,2 C 17,2 C 3,5 km/h (1 Bft)
23/08/2007 23:00 16,8 C 83 % 1017,6 hPa 0,0 l/m 2,2 km/h (1 Bft) NO 0,00 h 0,025 mm 0 W/m 13,9 C 16,8 C 4,1 km/h (1 Bft)
24/08/2007 00:00 16,4 C 82 % 1017,6 hPa 0,0 l/m 1,8 km/h (1 Bft) NO 0,00 h 0,025 mm 0 W/m 13,2 C 16,4 C 3,5 km/h (1 Bft)
24/08/2007 01:00 16,5 C 79 % 1017,7 hPa 0,0 l/m 5,7 km/h (1 Bft) O 0,00 h 0,025 mm 0 W/m 12,8 C 16,5 C 7,7 km/h (2 Bft)
24/08/2007 02:00 16,5 C 75 % 1017,9 hPa 0,0 l/m 4,5 km/h (1 Bft) O 0,00 h 0,025 mm 0 W/m 12,1 C 16,5 C 6,3 km/h (2 Bft)
24/08/2007 03:00 16,5 C 73 % 1017,6 hPa 0,0 l/m 3,6 km/h (1 Bft) O-NO 0,00 h 0,025 mm 0 W/m 11,6 C 16,5 C 5,7 km/h (1 Bft)
24/08/2007 04:00 15,7 C 74 % 1017,4 hPa 0,0 l/m 2,6 km/h (1 Bft) O-NO 0,00 h 0,051 mm 0 W/m 11,1 C 15,7 C 4,2 km/h (1 Bft)
24/08/2007 05:00 15,9 C 73 % 1017,3 hPa 0,0 l/m 2,7 km/h (1 Bft) N-NO 0,00 h 0,025 mm 0 W/m 11,0 C 15,9 C 3,8 km/h (1 Bft)
24/08/2007 06:00 15,9 C 72 % 1017,6 hPa 0,0 l/m 3,3 km/h (1 Bft) NO 0,03 h 0,025 mm 9 W/m 10,8 C 15,9 C 4,4 km/h (1 Bft)
24/08/2007 07:00 17,1 C 67 % 1019,3 hPa 0,0 l/m 4,1 km/h (1 Bft) O 0,00 h 0,025 mm 43 W/m 10,9 C 17,1 C 6,2 km/h (2 Bft)
24/08/2007 08:00 17,9 C 65 % 1020,5 hPa 0,0 l/m 3,0 km/h (1 Bft) O 0,00 h 0,051 mm 123 W/m 11,3 C 17,9 C 4,5 km/h (1 Bft)
24/08/2007 09:00 20,3 C 62 % 1020,7 hPa 0,0 l/m 0,9 km/h (0 Bft) O 0,13 h 0,102 mm 237 W/m 12,8 C 20,3 C 2,5 km/h (1 Bft)
24/08/2007 10:00 22,6 C 55 % 1020,7 hPa 0,0 l/m 3,8 km/h (1 Bft) NE 0,43 h 0,152 mm 347 W/m 13,2 C 22,6 C 6,2 km/h (2 Bft)
24/08/2007 11:00 24,5 C 49 % 1020,4 hPa 0,0 l/m 7,2 km/h (2 Bft) E 0,42 h 0,254 mm 413 W/m 12,9 C 24,5 C 10,5 km/h (2 Bft)
24/08/2007 12:00 25,3 C 49 % 1020,5 hPa 0,0 l/m 5,3 km/h (1 Bft) E 0,73 h 0,330 mm 624 W/m 13,7 C 25,3 C 8,6 km/h (2 Bft)
24/08/2007 13:00 27,8 C 38 % 1020,3 hPa 0,0 l/m 8,3 km/h (2 Bft) E-NE 1,00 h 0,483 mm 805 W/m 12,1 C 27,8 C 13,4 km/h (3 Bft)
24/08/2007 14:00 27,5 C 39 % 1020,5 hPa 0,0 l/m 9,5 km/h (2 Bft) E 1,00 h 0,610 mm 769 W/m 12,1 C 27,5 C 15,9 km/h (3 Bft)
24/08/2007 15:00 27,9 C 38 % 1020,2 hPa 0,0 l/m 8,9 km/h (2 Bft) E 1,00 h 0,610 mm 703 W/m 12,1 C 27,9 C 13,8 km/h (3 Bft)
24/08/2007 16:00 25,5 C 48 % 1020,5 hPa 0,0 l/m 7,2 km/h (2 Bft) E 0,75 h 0,559 mm 496 W/m 13,6 C 25,5 C 12,0 km/h (2 Bft)
24/08/2007 17:00 24,7 C 54 % 1021,2 hPa 0,0 l/m 4,8 km/h (1 Bft) E 0,72 h 0,381 mm 353 W/m 14,7 C 24,7 C 8,4 km/h (2 Bft)
24/08/2007 18:00 23,5 C 58 % 1021,6 hPa 0,0 l/m 1,7 km/h (1 Bft) E-SE 0,23 h 0,254 mm 151 W/m 14,9 C 23,5 C 3,2 km/h (1 Bft)
24/08/2007 19:00 22,5 C 62 % 1021,6 hPa 0,0 l/m 0,0 km/h (0 Bft) N 0,00 h 0,102 mm 44 W/m 14,8 C 22,5 C 0,3 km/h (0 Bft)
24/08/2007 20:00 21,7 C 62 % 1021,5 hPa 0,0 l/m 2,5 km/h (1 Bft) O 0,00 h 0,025 mm 7 W/m 14,2 C 21,7 C 3,9 km/h (1 Bft)
24/08/2007 21:00 21,8 C 62 % 1021,2 hPa 0,0 l/m 3,9 km/h (1 Bft) NO 0,00 h 0,025 mm 0 W/m 14,1 C 21,8 C 6,1 km/h (2 Bft)
24/08/2007 22:00 21,6 C 58 % 1020,7 hPa 0,0 l/m 1,7 km/h (1 Bft) N-NE 0,00 h 0,051 mm 0 W/m 13,1 C 21,6 C 3,5 km/h (1 Bft)
24/08/2007 23:00 21,2 C 59 % 1020,8 hPa 0,0 l/m 2,5 km/h (1 Bft) S 0,00 h 0,051 mm 0 W/m 12,8 C 21,2 C 3,8 km/h (1 Bft)
25/08/2007 00:00 20,9 C 62 % 1021,3 hPa 0,0 l/m 2,8 km/h (1 Bft) E 0,00 h 0,051 mm 0 W/m 13,2 C 20,9 C 4,3 km/h (1 Bft)
25/08/2007 01:00 20,0 C 64 % 1021,6 hPa 0,0 l/m 0,9 km/h (0 Bft) N-NE 0,00 h 0,051 mm 0 W/m 13,0 C 20,0 C 1,9 km/h (1 Bft)
25/08/2007 02:00 20,2 C 63 % 1021,4 hPa 0,0 l/m 4,5 km/h (1 Bft) O 0,00 h 0,051 mm 0 W/m 13,0 C 20,2 C 6,0 km/h (2 Bft)
25/08/2007 03:00 20,0 C 62 % 1022,0 hPa 0,0 l/m 5,7 km/h (1 Bft) O 0,00 h 0,051 mm 0 W/m 12,5 C 20,0 C 8,5 km/h (2 Bft)
25/08/2007 04:00 20,1 C 57 % 1021,9 hPa 0,0 l/m 5,6 km/h (1 Bft) NO 0,00 h 0,076 mm 0 W/m 11,3 C 20,1 C 8,1 km/h (2 Bft)
25/08/2007 05:00 21,2 C 51 % 1021,5 hPa 0,0 l/m 4,0 km/h (1 Bft) O-NO 0,00 h 0,076 mm 0 W/m 10,8 C 21,2 C 6,1 km/h (2 Bft)
25/08/2007 06:00 21,3 C 49 % 1021,5 hPa 0,0 l/m 1,5 km/h (1 Bft) O-NO 0,00 h 0,076 mm 7 W/m 10,2 C 21,3 C 2,6 km/h (1 Bft)
25/08/2007 07:00 21,5 C 49 % 1022,9 hPa 0,0 l/m 5,7 km/h (1 Bft) O 0,00 h 0,025 mm 37 W/m 10,4 C 21,5 C 7,6 km/h (2 Bft)
25/08/2007 08:00 22,7 C 45 % 1023,2 hPa 0,0 l/m 6,4 km/h (2 Bft) O-NO 0,00 h 0,076 mm 125 W/m 10,2 C 22,7 C 9,6 km/h (2 Bft)
25/08/2007 09:00 25,0 C 39 % 1023,2 hPa 0,0 l/m 1,4 km/h (1 Bft) N-NO 0,60 h 0,152 mm 285 W/m 10,0 C 25,0 C 3,1 km/h (1 Bft)
25/08/2007 10:00 29,8 C 29 % 1022,9 hPa 0,0 l/m 5,1 km/h (1 Bft) NE 1,00 h 0,203 mm 534 W/m 9,8 C 29,8 C 8,1 km/h (2 Bft)
25/08/2007 11:00 32,7 C 23 % 1022,2 hPa 0,0 l/m 3,6 km/h (1 Bft) NE 1,00 h 0,432 mm 640 W/m 8,8 C 32,7 C 6,7 km/h (2 Bft)
25/08/2007 12:00 34,8 C 22 % 1021,4 hPa 0,0 l/m 4,0 km/h (1 Bft) E 1,00 h 0,508 mm 737 W/m 9,9 C 34,8 C 8,0 km/h (2 Bft)
25/08/2007 13:00 33,3 C 27 % 1021,6 hPa 0,0 l/m 13,7 km/h (3 Bft) S 1,00 h 0,584 mm 755 W/m 11,6 C 33,3 C 20,2 km/h (4 Bft)
25/08/2007 14:00 30,4 C 35 % 1022,9 hPa 0,0 l/m 12,5 km/h (3 Bft) E 1,00 h 0,711 mm 725 W/m 12,9 C 30,4 C 18,3 km/h (3 Bft)
25/08/2007 15:00 29,0 C 46 % 1022,9 hPa 0,0 l/m 8,9 km/h (2 Bft) E 1,00 h 0,635 mm 654 W/m 16,1 C 29,0 C 13,5 km/h (3 Bft)
25/08/2007 16:00 29,3 C 39 % 1022,2 hPa 0,0 l/m 5,7 km/h (1 Bft) E 1,00 h 0,508 mm 532 W/m 13,8 C 29,3 C 8,7 km/h (2 Bft)
25/08/2007 17:00 29,1 C 31 % 1021,6 hPa 0,0 l/m 3,9 km/h (1 Bft) E-SE 1,00 h 0,432 mm 376 W/m 10,3 C 29,1 C 6,8 km/h (2 Bft)
25/08/2007 18:00 28,5 C 31 % 1021,4 hPa 0,0 l/m 2,3 km/h (1 Bft) S-SE 0,83 h 0,305 mm 196 W/m 9,5 C 28,5 C 4,6 km/h (1 Bft)
25/08/2007 19:00 26,7 C 37 % 1021,8 hPa 0,0 l/m 2,3 km/h (1 Bft) S-SE 0,00 h 0,178 mm 63 W/m 10,9 C 26,7 C 4,3 km/h (1 Bft)
25/08/2007 20:00 24,8 C 43 % 1022,0 hPa 0,0 l/m 1,3 km/h (1 Bft) O 0,03 h 0,076 mm 11 W/m 11,3 C 24,8 C 2,1 km/h (1 Bft)
25/08/2007 21:00 23,4 C 45 % 1021,9 hPa 0,0 l/m 0,1 km/h (0 Bft) O-NO 0,00 h 0,025 mm 0 W/m 10,9 C 23,4 C 0,9 km/h (0 Bft)
25/08/2007 22:00 23,4 C 44 % 1021,9 hPa 0,0 l/m 3,2 km/h (1 Bft) NO 0,00 h 0,051 mm 0 W/m 10,6 C 23,4 C 4,8 km/h (1 Bft)
25/08/2007 23:00 23,1 C 45 % 1021,7 hPa 0,0 l/m 3,0 km/h (1 Bft) NO 0,00 h 0,076 mm 0 W/m 10,4 C 23,1 C 4,6 km/h (1 Bft)
26/08/2007 00:00 23,1 C 44 % 1021,2 hPa 0,0 l/m 3,4 km/h (1 Bft) O-NO 0,00 h 0,076 mm 0 W/m 10,0 C 23,1 C 4,9 km/h (1 Bft)
26/08/2007 01:00 22,5 C 47 % 1021,2 hPa 0,0 l/m 4,3 km/h (1 Bft) O 0,00 h 0,076 mm 0 W/m 10,7 C 22,5 C 6,0 km/h (2 Bft)
26/08/2007 02:00 23,1 C 45 % 1020,9 hPa 0,0 l/m 5,1 km/h (1 Bft) O 0,00 h 0,076 mm 0 W/m 10,6 C 23,1 C 6,8 km/h (2 Bft)
26/08/2007 03:00 24,0 C 43 % 1020,4 hPa 0,0 l/m 5,6 km/h (1 Bft) O 0,00 h 0,102 mm 0 W/m 10,7 C 24,0 C 7,0 km/h (2 Bft)
26/08/2007 04:00 24,5 C 42 % 1020,2 hPa 0,0 l/m 5,0 km/h (1 Bft) O 0,00 h 0,102 mm 0 W/m 10,7 C 24,5 C 6,3 km/h (2 Bft)
26/08/2007 05:00 23,8 C 46 % 1020,1 hPa 0,0 l/m 1,5 km/h (1 Bft) O-NO 0,00 h 0,102 mm 0 W/m 11,5 C 23,8 C 2,2 km/h (1 Bft)
26/08/2007 06:00 23,7 C 47 % 1019,9 hPa 0,0 l/m 3,4 km/h (1 Bft) NO 0,03 h 0,076 mm 7 W/m 11,7 C 23,7 C 4,8 km/h (1 Bft)
26/08/2007 07:00 23,5 C 49 % 1020,3 hPa 0,0 l/m 0,5 km/h (0 Bft) NO 0,00 h 0,051 mm 45 W/m 12,0 C 23,5 C 1,1 km/h (1 Bft)
26/08/2007 08:00 25,1 C 45 % 1020,8 hPa 0,0 l/m 0,6 km/h (0 Bft) NO 0,30 h 0,051 mm 152 W/m 12,4 C 25,1 C 1,4 km/h (1 Bft)
26/08/2007 09:00 27,7 C 38 % 1021,3 hPa 0,0 l/m 2,2 km/h (1 Bft) E 1,00 h 0,127 mm 341 W/m 12,3 C 27,7 C 4,3 km/h (1 Bft)
26/08/2007 10:00 29,2 C 34 % 1021,6 hPa 0,0 l/m 4,7 km/h (1 Bft) E 1,00 h 0,254 mm 505 W/m 11,7 C 29,2 C 8,0 km/h (2 Bft)
26/08/2007 11:00 30,4 C 30 % 1021,8 hPa 0,0 l/m 5,3 km/h (1 Bft) E-SE 1,00 h 0,406 mm 628 W/m 11,0 C 30,4 C 8,7 km/h (2 Bft)
26/08/2007 12:00 31,9 C 28 % 1021,6 hPa 0,0 l/m 6,6 km/h (2 Bft) E-NE 1,00 h 0,483 mm 715 W/m 10,9 C 31,9 C 10,4 km/h (2 Bft)
26/08/2007 13:00 33,2 C 25 % 1021,0 hPa 0,0 l/m 8,3 km/h (2 Bft) E-NE 1,00 h 0,584 mm 741 W/m 10,4 C 33,2 C 13,5 km/h (3 Bft)
26/08/2007 14:00 32,2 C 25 % 1020,7 hPa 0,0 l/m 10,9 km/h (2 Bft) E 1,00 h 0,635 mm 723 W/m 9,4 C 32,2 C 15,7 km/h (3 Bft)
26/08/2007 15:00 31,8 C 25 % 1020,2 hPa 0,0 l/m 9,1 km/h (2 Bft) E 1,00 h 0,635 mm 674 W/m 9,5 C 31,8 C 13,3 km/h (3 Bft)
26/08/2007 16:00 32,2 C 26 % 1019,8 hPa 0,0 l/m 5,8 km/h (2 Bft) E 1,00 h 0,584 mm 536 W/m 10,4 C 32,2 C 9,3 km/h (2 Bft)
26/08/2007 17:00 30,9 C 31 % 1019,4 hPa 0,0 l/m 4,1 km/h (1 Bft) E 1,00 h 0,457 mm 378 W/m 11,7 C 30,9 C 6,7 km/h (2 Bft)
26/08/2007 18:00 29,7 C 32 % 1019,1 hPa 0,0 l/m 2,2 km/h (1 Bft) E 1,00 h 0,330 mm 218 W/m 11,0 C 29,7 C 4,4 km/h (1 Bft)
26/08/2007 19:00 27,2 C 36 % 1018,8 hPa 0,0 l/m 0,6 km/h (0 Bft) E-SE 0,27 h 0,178 mm 69 W/m 10,9 C 27,2 C 1,8 km/h (1 Bft)
26/08/2007 20:00 24,9 C 44 % 1018,7 hPa 0,0 l/m 0,0 km/h (0 Bft) N 0,00 h 0,076 mm 9 W/m 11,9 C 24,9 C 0,1 km/h (0 Bft)
26/08/2007 21:00 24,2 C 47 % 1018,8 hPa 0,0 l/m 0,5 km/h (0 Bft) E-SE 0,00 h 0,025 mm 0 W/m 12,1 C 24,2 C 1,5 km/h (1 Bft)
26/08/2007 22:00 24,0 C 49 % 1019,0 hPa 0,0 l/m 1,2 km/h (1 Bft) N-NO 0,00 h 0,051 mm 0 W/m 12,5 C 24,0 C 3,0 km/h (1 Bft)
26/08/2007 23:00 23,7 C 49 % 1018,8 hPa 0,0 l/m 0,5 km/h (0 Bft) N-NO 0,00 h 0,051 mm 0 W/m 12,3 C 23,7 C 1,6 km/h (1 Bft)
Min-Date _ 22/08/07 25/08/07 20/08/07 - 20/08/07 - - - - 21/08/07 22/08/07 20/08/07
_ Min-Heure 04:27 12:48 17:15 - 00:01 - - - - 03:44 04:27 00:11
Minimum _ 13,2 C 20 % 997,7 hPa - 0,0 km/h (0 Bft) - - - - 6,2 C 13,2 C 0,0 km/h (0 Bft)
Max-Date _ 25/08/07 21/08/07 25/08/07 21/08/07 20/08/07 - 20/08/07 25/08/07 21/08/07 20/08/07 25/08/07 20/08/07
_ Max-Heure 12:47 09:29 08:15 07:08 17:59 - 06:51 14:00 12:57 10:30 12:47 16:53
Maximum _ 36,2 C 94 % 1023,3 hPa 0,6 l/m 41,8 km/h
SO (6 Bft)
- 0,02 h 0,711 mm 1113 W/m 17,9 C 36,2 C 53,1 km/h
SO (7 Bft)
Moyenne _ 21,5 C 61 % 1013,2 hPa #1,2 l/m 5,3 km/h (1 Bft) E #48:35 h #30,033 mm 322 W/m 12,6 C 21,5 C 8,2 km/h (2 Bft)
Roquefort les pins